Time;durP1;ratioP1;P1;durP2;ratioP2;P2;SDS_P1;SDS_P2;PMS_P1;PMS_P2;Temp;Humidity;BMP_temperature;BMP_pressure;BME280_temperature;BME280_humidity;BME280_pressure;Samples;Min_cycle;Max_cycle;Signal;HPM_P1;HPM_P2
2023/05/04 05:02:01;;;;;;;25.52;13.93;;;;;;;6.34;86.86;96923.78;2082523;28;20567;-60
2023/05/04 05:03:03;;;;;;;31.67;14.68;;;;;;;6.47;86.87;96940.75;2081735;28;20654;-60
2023/05/04 07:10:14;;;;;;;16.90;9.68;;;;;;;13.94;63.42;96919.25;2084237;28;20572;-61
2023/05/04 07:11:17;;;;;;;13.30;9.00;;;;;;;14.19;63.57;96924.03;2082440;28;20224;-62
2023/05/04 07:12:18;;;;;;;17.42;8.77;;;;;;;14.35;63.32;96936.31;2083843;28;20216;-63
2023/05/04 07:13:20;;;;;;;16.40;9.13;;;;;;;14.54;62.38;96939.59;2080720;28;20537;-63
2023/05/04 07:14:22;;;;;;;12.10;8.18;;;;;;;14.64;62.14;96939.06;2088475;28;20686;-63
2023/05/04 07:15:23;;;;;;;15.70;9.02;;;;;;;14.31;60.06;96930.38;2077968;28;20787;-63
2023/05/04 07:16:25;;;;;;;13.80;8.45;;;;;;;14.40;60.64;96925.53;2079819;28;20235;-63
2023/05/04 07:17:26;;;;;;;16.63;10.18;;;;;;;14.44;61.04;96938.41;2080738;28;20235;-62
2023/05/04 07:18:28;;;;;;;15.88;9.60;;;;;;;14.56;61.11;96941.31;2081737;28;20284;-63
2023/05/04 07:19:29;;;;;;;13.13;9.55;;;;;;;14.65;61.02;96940.81;2080027;28;20198;-62
2023/05/04 07:20:31;;;;;;;12.13;8.27;;;;;;;14.43;60.24;96936.72;2081392;28;20239;-63
2023/05/04 07:21:32;;;;;;;17.98;8.27;;;;;;;14.36;60.95;96943.28;2079554;28;20250;-63
2023/05/04 07:22:34;;;;;;;18.33;8.88;;;;;;;14.53;60.38;96937.91;2081799;28;20193;-63
2023/05/04 07:23:36;;;;;;;15.05;10.23;;;;;;;14.77;59.73;96947.16;2082329;28;20847;-62
2023/05/04 07:24:37;;;;;;;16.67;7.82;;;;;;;14.72;60.04;96936.91;2081062;28;20201;-63
2023/05/04 07:25:39;;;;;;;21.33;8.18;;;;;;;14.85;59.93;96942.31;2080573;28;20236;-63
2023/05/04 07:26:40;;;;;;;15.32;8.25;;;;;;;15.18;59.55;96941.28;2078239;28;20197;-63
2023/05/04 07:27:43;;;;;;;11.43;8.00;;;;;;;15.31;59.89;96939.66;2078489;28;20264;-63
2023/05/04 07:28:45;;;;;;;13.63;8.73;;;;;;;15.50;59.65;96933.28;2080876;28;20209;-63
2023/05/04 07:29:47;;;;;;;12.85;7.75;;;;;;;15.56;58.60;96901.31;2080121;28;20217;-63
2023/05/04 07:30:48;;;;;;;13.25;8.00;;;;;;;15.72;58.23;96943.38;2083566;28;20228;-63
2023/05/04 07:31:49;;;;;;;22.85;8.55;;;;;;;15.95;57.44;96936.72;2080128;28;20665;-63
2023/05/04 07:32:51;;;;;;;10.88;8.05;;;;;;;16.11;56.68;96933.97;2085057;28;20205;-63
2023/05/04 07:33:53;;;;;;;13.55;7.93;;;;;;;15.74;57.25;96930.09;2078861;28;20286;-63
2023/05/04 07:34:55;;;;;;;14.40;7.85;;;;;;;15.98;57.25;96930.41;2079037;28;20328;-63
2023/05/04 07:35:57;;;;;;;14.93;6.93;;;;;;;15.65;56.29;96919.19;2081311;28;20205;-62
2023/05/04 07:36:59;;;;;;;9.45;6.95;;;;;;;15.40;56.86;96938.25;2078220;28;20198;-63
2023/05/04 07:38:01;;;;;;;13.10;7.50;;;;;;;15.40;56.74;96940.03;2078375;28;20530;-63
2023/05/04 07:39:03;;;;;;;10.75;7.05;;;;;;;14.82;57.50;96929.34;2081839;28;20197;-64
2023/05/04 07:40:06;;;;;;;10.43;6.88;;;;;;;15.10;57.01;96928.59;2081041;28;20220;-63
2023/05/04 07:41:08;;;;;;;11.35;6.60;;;;;;;15.56;57.27;96932.91;2081171;28;20197;-63
2023/05/04 07:42:12;;;;;;;11.63;6.82;;;;;;;15.10;58.81;96939.09;2082016;28;20194;-63
2023/05/04 07:43:14;;;;;;;11.75;7.22;;;;;;;15.21;57.03;96938.50;2082055;28;20641;-63
2023/05/04 07:44:15;;;;;;;11.65;6.93;;;;;;;15.26;58.21;96931.19;2074083;28;20553;-63
2023/05/04 07:45:16;;;;;;;8.40;5.90;;;;;;;15.32;57.36;96932.59;2079901;28;20751;-63
2023/05/04 07:46:18;;;;;;;18.23;7.10;;;;;;;15.09;58.00;96932.16;2083307;28;20280;-63
2023/05/04 07:47:19;;;;;;;10.05;7.03;;;;;;;14.57;58.02;96925.44;2082115;28;20244;-62
2023/05/04 07:48:21;;;;;;;9.35;6.28;;;;;;;14.72;58.51;96923.75;2082910;28;20236;-63
2023/05/04 07:49:26;;;;;;;12.32;6.55;;;;;;;15.05;58.62;96933.28;2081406;28;20584;-63
2023/05/04 07:50:28;;;;;;;17.00;6.03;;;;;;;15.49;56.83;96935.06;2084558;28;20224;-63
2023/05/04 07:51:30;;;;;;;11.00;6.57;;;;;;;15.48;56.97;96930.72;2076362;28;20802;-63
2023/05/04 07:52:32;;;;;;;12.60;6.55;;;;;;;15.22;57.03;96913.84;2081195;28;20236;-63
2023/05/04 07:53:33;;;;;;;10.63;7.15;;;;;;;14.71;57.05;96922.06;2082113;28;20307;-63
2023/05/04 07:54:35;;;;;;;11.23;7.20;;;;;;;15.09;57.58;96926.88;2083045;28;20548;-63
2023/05/04 07:55:36;;;;;;;17.02;6.60;;;;;;;15.06;57.74;96921.81;2078985;28;20715;-63
2023/05/04 07:56:38;;;;;;;10.80;6.43;;;;;;;15.08;58.27;96916.47;2082780;28;20197;-63
2023/05/04 07:57:40;;;;;;;12.63;6.40;;;;;;;15.41;57.72;96921.50;2080134;28;20202;-63
2023/05/04 07:58:41;;;;;;;11.30;6.95;;;;;;;15.88;57.42;96916.97;2080690;28;20555;-63
2023/05/04 07:59:42;;;;;;;9.68;6.13;;;;;;;15.71;57.77;96906.59;2080804;28;20209;-63
2023/05/04 08:00:44;;;;;;;12.30;7.15;;;;;;;15.65;56.53;96916.53;2079347;28;20754;-64
2023/05/04 08:01:46;;;;;;;16.63;7.50;;;;;;;15.76;56.08;96926.44;2080406;28;20231;-63
2023/05/04 08:02:48;;;;;;;12.52;6.40;;;;;;;15.83;55.50;96916.41;2078056;28;20297;-63
2023/05/04 08:03:50;;;;;;;8.35;5.88;;;;;;;15.75;56.01;96926.53;2079029;28;20205;-63
2023/05/04 08:04:51;;;;;;;12.85;7.13;;;;;;;15.87;56.32;96923.19;2079934;28;20536;-63
2023/05/04 08:05:52;;;;;;;9.63;6.30;;;;;;;16.38;55.83;96909.47;2077248;28;20221;-63
2023/05/04 08:06:54;;;;;;;8.38;5.88;;;;;;;16.21;54.82;96925.50;2078239;28;20221;-63
2023/05/04 08:07:55;;;;;;;12.07;6.50;;;;;;;15.98;54.61;96910.16;2079531;28;20742;-62
2023/05/04 08:08:57;;;;;;;6.28;4.45;;;;;;;16.02;53.74;96920.53;2081809;28;20285;-63
2023/05/04 08:09:58;;;;;;;10.45;6.18;;;;;;;15.76;54.22;96921.16;2077292;28;20908;-61
2023/05/04 08:10:59;;;;;;;9.48;5.88;;;;;;;15.51;55.03;96921.81;2078139;28;20584;-63
2023/05/04 08:12:20;;;;;;;10.57;6.15;;;;;;;15.93;54.21;96914.88;2081092;28;20526;-63
2023/05/04 08:13:21;;;;;;;15.07;6.55;;;;;;;16.09;53.82;96909.50;2081487;28;20301;-63
2023/05/04 08:14:23;;;;;;;9.02;5.75;;;;;;;16.39;53.82;96908.53;2081535;28;20201;-63
2023/05/04 08:15:24;;;;;;;7.45;5.20;;;;;;;16.65;54.19;96920.00;2080972;28;20576;-63
2023/05/04 08:16:28;;;;;;;14.50;6.50;;;;;;;16.40;55.04;96912.00;2080602;28;20263;-63
2023/05/04 08:17:29;;;;;;;17.13;5.70;;;;;;;16.70;54.80;96911.81;2083531;28;20198;-63
2023/05/04 08:18:31;;;;;;;12.45;5.68;;;;;;;16.48;52.92;96907.94;2081645;28;20303;-63
2023/05/04 08:19:32;;;;;;;9.25;5.50;;;;;;;16.66;53.47;96912.97;2083157;28;20204;-63
2023/05/04 08:20:34;;;;;;;9.30;5.03;;;;;;;16.56;53.28;96911.88;2081014;28;20350;-63
2023/05/04 08:21:35;;;;;;;10.30;5.63;;;;;;;16.58;51.95;96910.81;2076890;28;20789;-63
2023/05/04 08:22:37;;;;;;;8.68;4.95;;;;;;;16.49;51.69;96906.13;2076232;28;20197;-63
2023/05/04 08:23:39;;;;;;;9.63;5.47;;;;;;;16.31;52.96;96903.72;2076670;28;20202;-63
2023/05/04 08:24:40;;;;;;;8.48;5.85;;;;;;;16.70;52.77;96905.69;2076492;28;20282;-64
2023/05/04 08:25:42;;;;;;;8.77;5.40;;;;;;;16.96;52.68;96911.91;2076209;28;20741;-63
2023/05/04 08:26:43;;;;;;;9.45;5.60;;;;;;;17.12;51.83;96902.03;2076784;28;20269;-63
2023/05/04 08:27:52;;;;;;;9.52;5.55;;;;;;;17.31;51.90;96908.72;2074919;28;20198;-63
2023/05/04 08:29:04;;;;;;;8.90;4.72;;;;;;;17.51;50.59;96914.41;2075463;28;20780;-63
2023/05/04 08:30:07;;;;;;;13.02;4.95;;;;;;;17.30;51.67;96909.66;2074372;28;20199;-63
2023/05/04 08:31:08;;;;;;;9.85;5.50;;;;;;;17.36;51.38;96900.50;2076726;28;20310;-63
2023/05/04 08:32:10;;;;;;;15.05;5.70;;;;;;;17.40;51.70;96894.03;2069954;28;20688;-63
2023/05/04 08:33:11;;;;;;;15.32;5.15;;;;;;;17.73;52.73;96898.78;2074574;28;20813;-63
2023/05/04 08:34:13;;;;;;;14.38;4.75;;;;;;;17.62;50.88;96902.19;2075258;28;20260;-63
2023/05/04 08:35:14;;;;;;;7.32;5.25;;;;;;;17.37;50.83;96908.28;2075300;28;20198;-63
2023/05/04 08:36:16;;;;;;;7.63;4.35;;;;;;;16.87;50.33;96908.06;2076289;28;20805;-63
2023/05/04 08:37:18;;;;;;;8.25;4.40;;;;;;;17.23;49.51;96906.59;2076008;28;20190;-63
2023/05/04 08:38:20;;;;;;;6.95;4.35;;;;;;;16.89;49.17;96900.06;2072428;28;20198;-63
2023/05/04 08:39:21;;;;;;;6.65;4.32;;;;;;;17.07;49.18;96905.94;2073825;28;20206;-63
2023/05/04 08:40:23;;;;;;;5.82;3.80;;;;;;;16.92;49.35;96905.97;2071563;28;20222;-63
2023/05/04 08:41:24;;;;;;;7.07;4.50;;;;;;;17.10;48.73;96903.94;2073374;28;20198;-62
2023/05/04 08:42:30;;;;;;;7.15;3.70;;;;;;;17.05;49.34;96899.91;2073926;28;20209;-63
2023/05/04 08:43:36;;;;;;;4.65;3.50;;;;;;;17.21;49.10;96894.44;2075070;28;20692;-63
2023/05/04 08:44:37;;;;;;;5.25;3.70;;;;;;;17.23;48.80;96901.31;2076784;28;20202;-63
2023/05/04 08:45:39;;;;;;;5.57;3.20;;;;;;;17.62;49.84;96898.69;2075592;28;20217;-63
2023/05/04 08:46:41;;;;;;;11.88;4.18;;;;;;;17.39;48.91;96897.63;2075251;28;20202;-63
2023/05/04 08:47:43;;;;;;;6.60;4.13;;;;;;;17.28;49.34;96900.97;2074126;28;20232;-63
2023/05/04 08:48:46;;;;;;;6.30;4.20;;;;;;;17.19;48.83;96880.50;2075185;28;20637;-62
2023/05/04 08:49:47;;;;;;;8.65;4.50;;;;;;;17.03;48.46;96897.38;2074543;28;20201;-63
2023/05/04 08:52:06;;;;;;;7.90;4.50;;;;;;;16.96;49.09;96893.44;2101842;27;20908;-61
2023/05/04 08:53:12;;;;;;;7.82;3.72;;;;;;;17.36;49.57;96900.50;2094467;28;20204;-61
2023/05/04 08:54:15;;;;;;;8.75;3.90;;;;;;;17.45;48.79;96902.50;2090191;28;20200;-61
2023/05/04 08:56:50;;;;;;;4.88;3.53;;;;;;;17.75;48.16;96880.19;2083238;28;21096;-61
2023/05/04 08:57:52;;;;;;;5.60;3.40;;;;;;;17.74;48.28;96891.72;2081442;28;20544;-61
2023/05/04 08:59:00;;;;;;;5.55;3.00;;;;;;;17.77;48.51;96892.31;2081425;28;20210;-61
2023/05/04 09:01:41;;;;;;;5.82;3.78;;;;;;;17.76;46.86;96895.94;2081712;28;21081;-60
2023/05/04 09:02:45;;;;;;;8.20;3.80;;;;;;;17.33;47.63;96901.53;2082358;28;20660;-61
2023/05/04 09:03:47;;;;;;;8.40;3.90;;;;;;;16.86;47.67;96905.53;2082320;28;20247;-60
2023/05/04 09:06:31;;;;;;;4.80;3.28;;;;;;;17.52;47.58;96898.50;2082138;28;20543;-61
2023/05/04 09:07:33;;;;;;;10.27;4.00;;;;;;;17.61;47.73;96902.25;2082159;28;20205;-61
2023/05/04 09:08:35;;;;;;;6.43;4.50;;;;;;;17.45;48.28;96902.50;2080504;28;20193;-61
2023/05/04 09:09:36;;;;;;;7.60;4.22;;;;;;;17.55;48.70;96900.06;2081014;28;20279;-61
2023/05/04 09:12:25;;;;;;;5.00;3.63;;;;;;;17.70;47.04;96869.09;2085664;28;20557;-61
2023/05/04 09:13:27;;;;;;;7.15;4.20;;;;;;;17.78;47.59;96886.09;2081777;28;20193;-61
2023/05/04 09:14:33;;;;;;;6.50;4.20;;;;;;;18.33;47.91;96883.16;2079904;28;20211;-61
2023/05/04 09:15:35;;;;;;;8.15;3.58;;;;;;;18.52;47.50;96881.81;2073968;28;20318;-61
2023/05/04 09:16:36;;;;;;;6.50;3.30;;;;;;;18.38;47.21;96877.53;2070577;28;20284;-61
2023/05/04 09:19:32;;;;;;;6.40;3.80;;;;;;;18.06;47.05;96886.81;2083288;28;20899;-61
2023/05/04 09:20:48;;;;;;;6.70;4.28;;;;;;;17.99;47.45;96877.66;2068091;28;20330;-61
2023/05/04 09:21:53;;;;;;;6.43;3.92;;;;;;;18.26;47.39;96874.81;2071378;28;20899;-61
2023/05/04 09:23:06;;;;;;;7.47;3.88;;;;;;;18.76;47.03;96884.47;2070747;28;20217;-60
2023/05/04 09:24:07;;;;;;;4.50;3.30;;;;;;;18.87;46.53;96875.75;2068773;28;20205;-61
2023/05/04 09:25:11;;;;;;;7.47;3.92;;;;;;;18.81;47.39;96884.13;2071414;28;20201;-63
2023/05/04 09:28:06;;;;;;;6.22;3.20;;;;;;;18.91;47.19;96885.97;2106128;27;20922;-63
2023/05/04 09:29:13;;;;;;;7.00;4.05;;;;;;;18.56;46.68;96894.72;2104672;28;20207;-62
2023/05/04 09:30:20;;;;;;;5.25;3.70;;;;;;;18.61;46.07;96870.56;2101617;28;20198;-63
2023/05/04 09:31:25;;;;;;;9.65;4.07;;;;;;;18.83;46.05;96885.69;2087276;28;20652;-61
2023/05/04 09:32:27;;;;;;;5.25;3.67;;;;;;;18.57;46.52;96887.63;2087442;28;20197;-61
2023/05/04 09:33:29;;;;;;;7.03;4.05;;;;;;;18.44;46.45;96883.22;2083910;28;20255;-61
2023/05/04 09:34:31;;;;;;;6.35;3.35;;;;;;;18.49;45.79;96887.34;2084725;28;20201;-61
2023/05/04 09:35:33;;;;;;;5.05;3.13;;;;;;;18.43;46.17;96881.53;2087151;28;20259;-61
2023/05/04 09:36:36;;;;;;;7.82;4.68;;;;;;;18.70;46.78;96879.63;2087445;28;20293;-61
2023/05/04 09:37:47;;;;;;;6.85;3.78;;;;;;;18.81;45.73;96878.84;2087560;28;20197;-61
2023/05/04 09:38:49;;;;;;;14.75;4.68;;;;;;;18.39;46.12;96877.41;2087149;28;20207;-61
2023/05/04 09:39:52;;;;;;;9.07;4.15;;;;;;;18.47;46.39;96882.16;2087098;28;20200;-60
2023/05/04 09:40:54;;;;;;;6.55;4.20;;;;;;;18.26;47.05;96850.22;2086478;28;20279;-60
2023/05/04 09:44:18;;;;;;;5.35;3.50;;;;;;;19.19;45.30;96885.72;2084082;28;20580;-62
2023/05/04 09:45:20;;;;;;;5.40;4.13;;;;;;;19.31;44.98;96863.63;2077664;28;20225;-61
2023/05/04 09:46:21;;;;;;;9.30;3.83;;;;;;;19.28;45.74;96873.59;2073329;28;20202;-62
2023/05/04 09:47:31;;;;;;;4.38;2.92;;;;;;;19.54;45.69;96887.47;2073750;28;20328;-62
2023/05/04 09:48:32;;;;;;;5.85;3.40;;;;;;;18.83;46.01;96883.06;2074270;28;20216;-62
2023/05/04 09:49:35;;;;;;;6.82;3.38;;;;;;;19.03;46.50;96884.25;2072813;28;20222;-62
2023/05/04 09:50:38;;;;;;;7.00;3.05;;;;;;;19.30;46.56;96885.75;2073956;28;20249;-62
2023/05/04 09:51:41;;;;;;;6.82;4.13;;;;;;;19.21;45.25;96889.94;2074022;28;20201;-62
2023/05/04 09:52:44;;;;;;;6.82;4.72;;;;;;;18.68;45.19;96889.47;2073396;28;20602;-62
2023/05/04 09:53:48;;;;;;;9.73;4.72;;;;;;;19.28;44.30;96897.41;2079773;28;20205;-62
2023/05/04 09:54:49;;;;;;;18.23;4.15;;;;;;;19.25;44.42;96890.56;2081605;28;20758;-62
2023/05/04 09:56:01;;;;;;;6.03;3.95;;;;;;;19.56;44.04;96889.03;2072528;28;20725;-62
2023/05/04 09:57:14;;;;;;;10.32;4.40;;;;;;;19.29;44.29;96896.44;2073170;28;20324;-62
2023/05/04 09:58:17;;;;;;;5.05;3.40;;;;;;;19.67;44.48;96884.72;2073243;28;20832;-62
2023/05/04 09:59:19;;;;;;;6.80;3.53;;;;;;;19.58;45.12;96881.81;2073053;28;20197;-62
2023/05/04 10:00:21;;;;;;;6.45;3.22;;;;;;;20.22;44.52;96879.53;2073576;28;20218;-62
2023/05/04 10:01:26;;;;;;;7.07;3.50;;;;;;;20.56;43.59;96882.94;2073736;28;20581;-62
2023/05/04 10:02:27;;;;;;;7.32;3.50;;;;;;;19.81;44.05;96881.84;2072458;28;20297;-62
2023/05/04 10:03:30;;;;;;;6.10;4.05;;;;;;;19.87;44.56;96870.78;2073496;28;20209;-64
2023/05/04 10:04:32;;;;;;;6.00;3.80;;;;;;;19.75;44.50;96869.06;2071673;28;20200;-64
2023/05/04 10:05:37;;;;;;;8.30;4.05;;;;;;;19.49;44.86;96873.72;2070180;28;20222;-64
2023/05/04 10:06:42;;;;;;;7.80;3.85;;;;;;;18.66;45.23;96872.88;2071425;28;20197;-63
2023/05/04 10:07:43;;;;;;;5.43;3.75;;;;;;;18.91;45.22;96880.69;2074581;28;20271;-64
2023/05/04 10:08:48;;;;;;;5.95;4.38;;;;;;;19.25;45.21;96872.84;2074616;28;20205;-63
2023/05/04 10:09:50;;;;;;;7.80;4.55;;;;;;;19.67;44.49;96868.84;2072520;28;20319;-64
2023/05/04 10:10:51;;;;;;;9.38;3.78;;;;;;;19.85;44.08;96866.56;2073277;28;20336;-63
2023/05/04 10:11:54;;;;;;;6.63;4.05;;;;;;;19.92;43.58;96867.75;2073865;28;20226;-62
2023/05/04 10:12:58;;;;;;;7.47;4.43;;;;;;;19.80;44.40;96868.72;2072495;28;20202;-62
2023/05/04 10:14:00;;;;;;;8.25;4.05;;;;;;;20.03;44.77;96864.25;2071998;28;20198;-62
2023/05/04 10:15:06;;;;;;;9.75;3.72;;;;;;;20.53;44.14;96863.78;2071455;28;20202;-62
2023/05/04 10:16:23;;;;;;;15.15;4.82;;;;;;;20.95;43.54;96865.72;2073077;28;20206;-62
2023/05/04 10:17:40;;;;;;;5.47;3.58;;;;;;;19.80;43.23;96872.19;2073525;28;20202;-62
2023/05/04 10:18:53;;;;;;;6.18;3.95;;;;;;;19.53;44.26;96862.78;2073605;28;20833;-62
2023/05/04 10:20:06;;;;;;;6.22;3.50;;;;;;;20.35;44.00;96852.88;2072044;28;20244;-62
2023/05/04 10:21:30;;;;;;;10.27;4.40;;;;;;;19.42;44.33;96865.44;2074459;28;20227;-62
2023/05/04 10:22:49;;;;;;;5.70;4.30;;;;;;;20.14;42.90;96856.31;2073250;28;20206;-62
2023/05/04 10:24:25;;;;;;;8.38;4.63;;;;;;;20.36;43.09;96859.88;2072810;28;20560;-62
2023/05/04 10:25:48;;;;;;;9.98;4.50;;;;;;;20.06;43.51;96858.72;2070891;28;20771;-61
2023/05/04 10:27:12;;;;;;;7.45;3.75;;;;;;;20.06;43.94;96864.00;2075006;28;20203;-62
2023/05/04 10:28:38;;;;;;;5.68;3.75;;;;;;;20.15;44.28;96868.59;2073141;28;20861;-62
2023/05/04 10:29:41;;;;;;;9.00;4.13;;;;;;;20.80;43.07;96863.38;2072626;28;20199;-62
2023/05/04 10:30:43;;;;;;;9.95;4.35;;;;;;;19.46;44.66;96861.56;2069302;28;20253;-61
2023/05/04 10:31:44;;;;;;;8.18;3.90;;;;;;;19.39;44.29;96866.50;2071573;28;20561;-61
2023/05/04 10:32:54;;;;;;;8.88;4.90;;;;;;;18.79;46.21;96852.47;2071486;28;20214;-62
2023/05/04 10:33:55;;;;;;;6.32;4.30;;;;;;;18.56;45.97;96854.19;2074663;28;20360;-61
2023/05/04 10:35:08;;;;;;;6.88;4.43;;;;;;;19.37;45.72;96855.19;2071699;28;20303;-62
2023/05/04 10:36:10;;;;;;;7.38;4.93;;;;;;;19.28;45.07;96849.78;2073757;28;20221;-61
2023/05/04 10:37:16;;;;;;;7.13;4.60;;;;;;;20.23;43.62;96852.06;2072862;28;20730;-62
2023/05/04 10:38:19;;;;;;;6.88;4.10;;;;;;;19.88;44.43;96845.13;2071547;28;20194;-61
2023/05/04 10:39:23;;;;;;;7.80;4.72;;;;;;;19.66;43.45;96852.09;2069518;28;20202;-61
2023/05/04 10:40:39;;;;;;;8.05;4.68;;;;;;;19.33;44.52;96848.44;2072809;28;20253;-61
2023/05/04 10:41:41;;;;;;;9.15;4.20;;;;;;;19.87;43.45;96843.44;2069945;28;20202;-62
2023/05/04 10:42:43;;;;;;;8.35;3.92;;;;;;;20.56;43.18;96842.34;2071450;28;20210;-62
2023/05/04 10:43:49;;;;;;;6.75;2.70;;;;;;;20.93;42.53;96847.25;2072609;28;20234;-62
2023/05/04 10:44:55;;;;;;;8.10;3.97;;;;;;;21.27;41.65;96832.94;2072998;28;20194;-62
2023/05/04 10:45:57;;;;;;;4.78;3.40;;;;;;;20.90;41.57;96828.09;2069238;28;20280;-62
2023/05/04 10:47:04;;;;;;;7.35;3.42;;;;;;;20.96;42.52;96835.56;2071578;28;20300;-64
2023/05/04 10:48:07;;;;;;;7.45;3.53;;;;;;;21.33;41.94;96832.44;2073661;28;20209;-64
2023/05/04 10:49:16;;;;;;;12.52;4.30;;;;;;;21.34;40.57;96823.50;2069923;28;20248;-64
2023/05/04 10:50:18;;;;;;;7.53;4.15;;;;;;;21.43;40.79;96827.16;2072760;28;20677;-64
2023/05/04 10:51:23;;;;;;;5.85;3.60;;;;;;;21.15;41.63;96825.06;2069831;28;20198;-63
2023/05/04 10:52:46;;;;;;;5.60;4.00;;;;;;;20.27;44.01;96834.09;2071952;28;20212;-63
2023/05/04 10:53:47;;;;;;;5.15;3.90;;;;;;;20.64;43.14;96828.44;2073469;28;20205;-61
2023/05/04 10:54:58;;;;;;;7.15;3.67;;;;;;;22.23;41.27;96830.00;2072364;28;20565;-62
2023/05/04 10:56:00;;;;;;;4.65;3.10;;;;;;;21.95;40.62;96833.31;2068361;28;20230;-62
2023/05/04 10:57:03;;;;;;;5.93;4.00;;;;;;;21.43;40.45;96827.16;2068034;28;20277;-62
2023/05/04 10:58:05;;;;;;;6.40;3.63;;;;;;;21.29;40.93;96815.94;2066362;28;20654;-62
2023/05/04 10:59:09;;;;;;;5.70;3.92;;;;;;;21.78;40.22;96820.66;2065025;28;20214;-61
2023/05/04 11:00:11;;;;;;;6.10;3.80;;;;;;;21.11;41.14;96814.84;2065219;28;20281;-63
2023/05/04 11:01:13;;;;;;;4.53;3.22;;;;;;;21.81;41.16;96812.41;2067180;28;20206;-64
2023/05/04 11:02:22;;;;;;;6.78;3.67;;;;;;;22.47;41.28;96819.00;2066337;28;20239;-62
2023/05/04 11:03:23;;;;;;;6.40;3.97;;;;;;;22.58;40.14;96805.56;2064461;28;20195;-63
2023/05/04 11:04:25;;;;;;;6.35;3.45;;;;;;;21.07;40.51;96808.94;2065682;28;20539;-62
2023/05/04 11:05:39;;;;;;;5.75;3.47;;;;;;;20.97;41.87;96803.56;2068396;28;20225;-63
2023/05/04 11:06:41;;;;;;;6.15;3.65;;;;;;;20.47;41.62;96814.75;2067978;28;20209;-61
2023/05/04 11:07:43;;;;;;;5.35;3.40;;;;;;;20.67;42.38;96799.84;2064385;28;20202;-62
2023/05/04 11:08:49;;;;;;;20.67;3.90;;;;;;;21.41;41.91;96802.53;2067491;28;20198;-63
2023/05/04 11:09:50;;;;;;;6.53;3.50;;;;;;;21.33;41.72;96790.78;2066058;28;20291;-64
2023/05/04 11:11:03;;;;;;;4.45;3.20;;;;;;;22.00;41.41;96795.66;2067124;28;20252;-63
2023/05/04 11:12:06;;;;;;;6.18;3.08;;;;;;;21.30;40.15;96806.97;2067991;28;20206;-62
2023/05/04 11:13:14;;;;;;;5.32;3.50;;;;;;;21.80;40.19;96797.44;2066168;28;20341;-62
2023/05/04 11:14:27;;;;;;;5.20;3.25;;;;;;;21.31;39.92;96795.38;2067393;28;20773;-63
2023/05/04 11:15:29;;;;;;;5.28;3.33;;;;;;;21.56;40.13;96793.31;2063984;28;20237;-62
2023/05/04 11:16:31;;;;;;;6.40;3.35;;;;;;;21.85;39.79;96787.22;2065341;28;20203;-64
2023/05/04 11:17:32;;;;;;;7.47;2.85;;;;;;;21.99;41.07;96796.63;2067431;28;20281;-64
2023/05/04 11:18:36;;;;;;;9.02;3.80;;;;;;;22.23;41.16;96796.25;2064381;28;20202;-64
2023/05/04 11:19:48;;;;;;;6.95;3.40;;;;;;;22.73;38.85;96798.00;2064770;28;20279;-63
2023/05/04 11:20:50;;;;;;;12.07;3.72;;;;;;;22.09;39.43;96801.97;2074764;28;20270;-64
2023/05/04 11:21:51;;;;;;;5.72;3.00;;;;;;;21.77;40.55;96798.53;2075235;28;20195;-64
2023/05/04 11:22:53;;;;;;;9.75;3.55;;;;;;;22.04;39.74;96789.09;2068175;28;20699;-63
2023/05/04 11:23:58;;;;;;;5.05;2.65;;;;;;;22.34;38.11;96793.47;2068831;28;20235;-65
2023/05/04 11:25:00;;;;;;;6.10;3.33;;;;;;;21.99;39.21;96789.53;2067542;28;20286;-61
2023/05/04 11:26:06;;;;;;;5.70;3.00;;;;;;;22.21;38.79;96790.25;2067480;28;20199;-63
2023/05/04 11:27:22;;;;;;;4.95;3.40;;;;;;;22.39;39.16;96790.44;2066974;28;20636;-62
2023/05/04 11:28:36;;;;;;;6.00;2.90;;;;;;;22.20;39.45;96787.75;2068909;28;20202;-65
2023/05/04 11:29:38;;;;;;;6.93;3.80;;;;;;;21.94;39.46;96793.56;2069200;28;20214;-63
2023/05/04 11:30:41;;;;;;;7.55;3.45;;;;;;;21.99;38.63;96778.88;2065226;28;20218;-63
2023/05/04 11:31:52;;;;;;;4.47;3.20;;;;;;;21.50;38.83;96789.31;2066418;28;20743;-65
2023/05/04 11:32:56;;;;;;;3.25;2.53;;;;;;;22.75;39.13;96793.38;2066778;28;20218;-65
2023/05/04 11:33:57;;;;;;;5.55;3.20;;;;;;;22.89;38.07;96789.44;2067411;28;20202;-66
2023/05/04 11:34:59;;;;;;;6.05;2.50;;;;;;;22.10;37.95;96782.41;2066374;28;20195;-63
2023/05/04 11:36:00;;;;;;;7.35;3.05;;;;;;;23.21;38.78;96795.44;2065040;28;20262;-65
2023/05/04 11:37:05;;;;;;;6.32;3.65;;;;;;;22.70;37.26;96790.28;2064264;28;20199;-65
2023/05/04 11:38:07;;;;;;;5.75;2.70;;;;;;;22.77;37.07;96783.44;2066467;28;20244;-64
2023/05/04 11:39:08;;;;;;;7.07;3.08;;;;;;;21.97;38.20;96782.66;2065989;28;20195;-66
2023/05/04 11:40:22;;;;;;;5.60;3.25;;;;;;;21.82;37.46;96785.69;2067595;28;20202;-64
2023/05/04 11:41:25;;;;;;;4.75;3.03;;;;;;;21.30;37.05;96780.41;2067790;28;20202;-64
2023/05/04 11:42:26;;;;;;;3.38;2.90;;;;;;;21.34;37.93;96786.31;2066388;28;20296;-65
2023/05/04 11:43:28;;;;;;;13.38;9.05;;;;;;;21.83;37.54;96765.28;2072396;28;20230;-64
2023/05/04 11:44:30;;;;;;;2.95;2.35;;;;;;;22.22;37.25;96786.63;2075295;28;20562;-64
2023/05/04 11:45:33;;;;;;;4.78;2.85;;;;;;;22.69;36.82;96772.66;2066772;28;21054;-64
2023/05/04 11:46:35;;;;;;;4.43;2.95;;;;;;;22.88;37.89;96770.94;2064003;28;20206;-64
2023/05/04 11:47:37;;;;;;;4.00;2.75;;;;;;;22.64;37.37;96772.25;2067451;28;20890;-63
2023/05/04 11:48:39;;;;;;;4.35;2.50;;;;;;;22.64;36.65;96764.28;2066602;28;20206;-63
2023/05/04 11:49:42;;;;;;;3.67;2.45;;;;;;;23.31;37.78;96766.94;2067634;28;20198;-64
2023/05/04 11:50:46;;;;;;;5.22;3.35;;;;;;;24.32;37.10;96768.00;2067069;28;20359;-64
2023/05/04 11:51:47;;;;;;;4.82;2.42;;;;;;;24.12;35.45;96771.66;2068424;28;20622;-64
2023/05/04 11:52:49;;;;;;;3.90;2.50;;;;;;;22.94;36.95;96757.94;2067475;28;20571;-63
2023/05/04 11:53:50;;;;;;;4.75;2.92;;;;;;;23.45;36.41;96768.31;2069049;28;20223;-63
2023/05/04 11:54:56;;;;;;;5.22;3.45;;;;;;;22.92;36.28;96765.22;2066007;28;20658;-64
2023/05/04 11:56:01;;;;;;;4.65;2.55;;;;;;;23.04;35.96;96759.72;2064987;28;20279;-63
2023/05/04 11:57:02;;;;;;;14.30;3.03;;;;;;;23.71;35.73;96755.16;2068323;28;20250;-64
2023/05/04 11:58:05;;;;;;;11.23;2.60;;;;;;;23.17;36.85;96762.91;2067811;28;20229;-64
2023/05/04 11:59:09;;;;;;;4.38;3.13;;;;;;;23.57;36.36;96759.13;2068097;28;20252;-64
2023/05/04 12:00:11;;;;;;;6.80;3.20;;;;;;;23.43;36.20;96759.63;2067959;28;20199;-64
2023/05/04 12:01:13;;;;;;;4.15;2.47;;;;;;;23.44;35.57;96770.13;2067652;28;20679;-63
2023/05/04 12:02:16;;;;;;;4.25;2.63;;;;;;;23.50;34.56;96765.22;2066975;28;20202;-65
2023/05/04 12:03:25;;;;;;;8.65;2.40;;;;;;;23.64;34.80;96756.72;2068221;28;20196;-65
2023/05/04 12:04:44;;;;;;;4.68;2.67;;;;;;;23.57;34.13;96759.13;2066514;28;20318;-64
2023/05/04 12:05:53;;;;;;;4.18;2.30;;;;;;;23.51;34.30;96753.56;2066542;28;20225;-63
2023/05/04 12:06:55;;;;;;;5.18;2.20;;;;;;;23.38;34.91;96753.91;2066648;28;20222;-65
2023/05/04 12:07:57;;;;;;;5.80;2.40;;;;;;;24.52;35.26;96755.31;2065565;28;20562;-63
2023/05/04 12:09:04;;;;;;;19.63;10.93;;;;;;;25.14;34.06;96760.69;2063774;28;20212;-63
2023/05/04 12:10:06;;;;;;;8.05;3.40;;;;;;;24.38;34.01;96760.22;2064404;28;20191;-64
2023/05/04 12:11:11;;;;;;;7.65;2.80;;;;;;;24.16;34.05;96768.66;2063894;28;20926;-63
2023/05/04 12:12:18;;;;;;;4.50;2.35;;;;;;;23.98;34.62;96760.66;2068027;28;20199;-63
2023/05/04 12:13:19;;;;;;;6.15;2.10;;;;;;;24.04;34.52;96755.56;2067612;28;20199;-64
2023/05/04 12:14:23;;;;;;;3.97;2.20;;;;;;;24.69;34.45;96756.34;2065739;28;20286;-64
2023/05/04 12:15:35;;;;;;;11.88;2.28;;;;;;;24.48;34.23;96752.16;2067086;28;20227;-63
2023/05/04 12:16:37;;;;;;;6.90;2.83;;;;;;;24.54;34.01;96753.34;2066512;28;20200;-62
2023/05/04 12:17:40;;;;;;;6.20;3.03;;;;;;;23.72;34.15;96745.31;2067050;28;20694;-61
2023/05/04 12:18:44;;;;;;;4.43;2.53;;;;;;;23.12;33.80;96754.50;2067103;28;20741;-62
2023/05/04 12:19:56;;;;;;;10.30;2.55;;;;;;;23.20;34.02;96760.00;2068042;28;20203;-64
2023/05/04 12:21:07;;;;;;;7.63;2.55;;;;;;;23.51;33.57;96758.91;2067080;28;20332;-64
2023/05/04 12:22:08;;;;;;;6.38;2.72;;;;;;;23.60;33.65;96758.88;2063734;28;20211;-64
2023/05/04 12:23:10;;;;;;;5.00;2.75;;;;;;;23.90;34.17;96748.88;2066243;28;20199;-64